Time;durP1;ratioP1;P1;durP2;ratioP2;P2;SDS_P1;SDS_P2;PMS_P1;PMS_P2;Temp;Humidity;BMP_temperature;BMP_pressure;BME280_temperature;BME280_humidity;BME280_pressure;Samples;Min_cycle;Max_cycle;Signal;HPM_P1;HPM_P2
2023/06/05 00:00:19;;;;;;;;;5.00;5.00;;;;;21.97;35.89;101553.63;112195;1263;20783;-40
2023/06/05 00:03:06;;;;;;;;;5.00;5.00;;;;;21.97;35.77;101558.36;112013;1263;21124;-40
2023/06/05 00:05:34;;;;;;;;;5.00;5.00;;;;;21.98;35.80;101556.35;112207;1263;18630;-41
2023/06/05 00:08:01;;;;;;;;;4.00;4.00;;;;;21.96;35.84;101553.73;112032;1263;20582;-40
2023/06/05 00:10:28;;;;;;;;;10.00;5.00;;;;;21.95;36.06;101552.23;112220;1260;19624;-40
2023/06/05 00:12:56;;;;;;;;;4.50;4.50;;;;;21.97;35.94;101552.23;112022;1263;19937;-40
2023/06/05 00:15:23;;;;;;;;;4.00;4.00;;;;;21.96;35.96;101552.70;112223;1263;19350;-40
2023/06/05 00:17:51;;;;;;;;;4.00;4.00;;;;;21.96;36.08;101550.70;112046;1248;20045;-40
2023/06/05 00:20:19;;;;;;;;;5.00;5.00;;;;;21.96;35.78;101550.35;112169;1248;20034;-41
2023/06/05 00:22:48;;;;;;;;;4.00;4.00;;;;;21.96;35.88;101553.22;112033;1263;20680;-40
2023/06/05 00:25:16;;;;;;;;;4.00;4.00;;;;;21.95;35.92;101556.77;112017;1263;18698;-40
2023/06/05 00:27:43;;;;;;;;;5.00;5.00;;;;;21.94;36.08;101554.91;112222;1263;18623;-40
2023/06/05 00:30:10;;;;;;;;;4.00;4.00;;;;;21.94;35.95;101551.81;112073;1256;20643;-40
2023/06/05 00:32:38;;;;;;;;;5.00;5.00;;;;;21.94;36.07;101551.23;112250;1263;18493;-40
2023/06/05 00:35:05;;;;;;;;;7.33;7.00;;;;;21.95;35.94;101555.02;112084;1248;18851;-40
2023/06/05 00:37:33;;;;;;;;;7.00;5.00;;;;;21.94;36.08;101557.81;112227;1263;19537;-41
2023/06/05 00:40:01;;;;;;;;;5.00;5.00;;;;;21.93;36.01;101555.89;112009;1264;19588;-40
2023/06/05 00:42:28;;;;;;;;;5.00;5.00;;;;;21.93;35.95;101556.05;112214;1248;18621;-40
2023/06/05 00:44:56;;;;;;;;;4.67;4.00;;;;;21.94;36.03;101554.41;112043;1248;20744;-43
2023/06/05 00:47:23;;;;;;;;;7.00;6.00;;;;;21.93;36.15;101553.16;112230;1248;18133;-41
2023/06/05 00:49:51;;;;;;;;;4.67;4.00;;;;;21.92;36.12;101556.88;112020;1264;18596;-41
2023/06/05 00:52:18;;;;;;;;;4.00;4.00;;;;;21.91;36.11;101557.80;112225;1263;19359;-41
2023/06/05 00:54:45;;;;;;;;;4.00;4.00;;;;;21.91;36.07;101555.28;112039;1264;19527;-40
2023/06/05 00:57:13;;;;;;;;;5.00;4.00;;;;;21.90;36.13;101552.59;111986;1248;323535;-42
2023/06/05 00:59:44;;;;;;;;;4.00;4.00;;;;;21.91;36.13;101553.23;112046;1263;21810;-41
2023/06/05 01:02:12;;;;;;;;;5.00;5.00;;;;;21.91;36.04;101554.73;111957;1248;19587;-40
2023/06/05 01:04:40;;;;;;;;;5.00;5.00;;;;;21.90;36.17;101557.50;112112;1263;20522;-40
2023/06/05 01:07:08;;;;;;;;;4.00;4.00;;;;;21.89;36.12;101554.14;112172;1264;19661;-41
2023/06/05 01:09:36;;;;;;;;;5.00;5.00;;;;;21.89;36.28;101552.89;112022;1264;18194;-40
2023/06/05 01:12:03;;;;;;;;;7.00;5.00;;;;;21.89;36.22;101550.54;112228;1263;18586;-41
2023/06/05 01:14:32;;;;;;;;;5.00;5.00;;;;;21.89;36.16;101550.79;111986;1248;21044;-40
2023/06/05 01:17:00;;;;;;;;;5.00;4.50;;;;;21.87;36.37;101549.25;112140;1256;18200;-42
2023/06/05 01:19:28;;;;;;;;;4.00;4.00;;;;;21.87;36.24;101549.39;112123;1248;21348;-41
2023/06/05 01:21:56;;;;;;;;;5.00;5.00;;;;;21.86;36.15;101546.62;112037;1248;21826;-40
2023/06/05 01:24:25;;;;;;;;;4.67;4.67;;;;;21.87;36.19;101551.13;112178;1257;18537;-40
2023/06/05 01:26:52;;;;;;;;;4.50;4.50;;;;;21.86;36.21;101552.42;111979;1248;19938;-40
2023/06/05 01:29:20;;;;;;;;;8.00;7.00;;;;;21.86;36.32;101550.61;112092;1264;20692;-40
2023/06/05 01:31:47;;;;;;;;;4.50;4.50;;;;;21.85;36.37;101553.48;111946;1264;18478;-41
2023/06/05 01:34:19;;;;;;;;;5.00;5.00;;;;;21.85;36.35;101550.96;112116;1248;21285;-40
2023/06/05 01:36:47;;;;;;;;;4.50;4.50;;;;;21.84;36.40;101550.34;111978;1264;19321;-40
2023/06/05 01:39:14;;;;;;;;;7.00;5.00;;;;;21.83;36.45;101548.42;112169;1248;20806;-40
2023/06/05 01:41:41;;;;;;;;;5.00;5.00;;;;;21.83;36.28;101548.95;111997;1248;18554;-40
2023/06/05 01:44:09;;;;;;;;;6.33;6.33;;;;;21.83;36.39;101548.61;112162;1263;19289;-40
2023/06/05 01:46:36;;;;;;;;;5.00;5.00;;;;;21.82;36.52;101551.30;112003;1248;18189;-40
2023/06/05 01:49:05;;;;;;;;;5.00;5.00;;;;;21.81;36.56;101545.95;112174;1263;18570;-40
2023/06/05 01:51:33;;;;;;;;;5.00;5.00;;;;;21.80;36.55;101546.53;112136;1263;20866;-40
2023/06/05 01:54:00;;;;;;;;;5.00;4.50;;;;;21.80;36.51;101546.56;112103;1248;19972;-40
2023/06/05 01:56:30;;;;;;;;;7.00;5.00;;;;;21.79;36.60;101544.14;112101;1263;18769;-41
2023/06/05 01:58:57;;;;;;;;;4.67;4.67;;;;;21.78;36.70;101544.05;111962;1248;20746;-41
2023/06/05 02:01:24;;;;;;;;;6.00;5.00;;;;;21.78;36.64;101543.63;112122;1256;19535;-40
2023/06/05 02:03:53;;;;;;;;;7.00;5.00;;;;;21.78;36.64;101544.42;111985;1264;18972;-40
2023/06/05 02:06:20;;;;;;;;;7.00;7.00;;;;;21.77;36.71;101538.73;112070;1264;19649;-40
2023/06/05 02:08:48;;;;;;;;;8.00;8.00;;;;;21.78;36.83;101543.73;112241;1263;18367;-41
2023/06/05 02:11:15;;;;;;;;;7.00;5.00;;;;;21.76;36.99;101541.55;112065;1264;18733;-41
2023/06/05 02:13:43;;;;;;;;;7.00;7.00;;;;;21.74;37.15;101538.62;112172;1264;19342;-40
2023/06/05 02:16:11;;;;;;;;;7.00;7.00;;;;;21.74;37.24;101535.80;112043;1248;19571;-40
2023/06/05 02:18:38;;;;;;;;;7.50;7.50;;;;;21.75;37.54;101536.24;112209;1263;18739;-42
2023/06/05 02:21:05;;;;;;;;;8.00;8.00;;;;;21.75;37.44;101533.52;112065;1256;20680;-40
2023/06/05 02:23:33;;;;;;;;;10.00;8.00;;;;;21.74;37.55;101535.05;112238;1263;19764;-41
2023/06/05 02:26:00;;;;;;;;;7.00;7.00;;;;;21.74;37.70;101537.16;112081;1256;20329;-40
2023/06/05 02:28:28;;;;;;;;;8.00;7.00;;;;;21.74;37.84;101537.05;112230;1263;19943;-41
2023/06/05 02:30:55;;;;;;;;;8.00;8.00;;;;;21.73;37.98;101534.57;112089;1248;18124;-40
2023/06/05 02:33:23;;;;;;;;;10.00;10.00;;;;;21.73;37.97;101534.77;112129;1256;20114;-40
2023/06/05 02:35:50;;;;;;;;;10.00;10.00;;;;;21.72;38.19;101532.52;112086;1263;19333;-40
2023/06/05 02:38:18;;;;;;;;;8.00;8.00;;;;;21.73;38.06;101532.79;112230;1248;19980;-41
2023/06/05 02:40:45;;;;;;;;;10.00;8.00;;;;;21.72;38.40;101534.33;112087;1248;20204;-40
2023/06/05 02:43:14;;;;;;;;;8.00;8.00;;;;;21.72;38.30;101532.02;112129;1248;21494;-40
2023/06/05 02:45:41;;;;;;;;;8.00;7.00;;;;;21.71;38.37;101534.49;112006;1257;18574;-40
2023/06/05 02:48:09;;;;;;;;;11.00;10.00;;;;;21.71;38.70;101535.38;112160;1263;18580;-40
2023/06/05 02:50:36;;;;;;;;;10.00;8.00;;;;;21.71;38.62;101534.81;112008;1248;20768;-40
2023/06/05 02:53:04;;;;;;;;;7.00;7.00;;;;;21.71;38.60;101539.05;112208;1264;18540;-40
2023/06/05 02:55:32;;;;;;;;;7.00;7.00;;;;;21.70;38.78;101538.54;111981;1264;19962;-40
2023/06/05 02:57:59;;;;;;;;;10.00;8.00;;;;;21.70;38.78;101543.46;112099;1256;22322;-40
2023/06/05 03:00:27;;;;;;;;;10.00;8.00;;;;;21.70;38.76;101545.10;111956;1263;18106;-40
2023/06/05 03:02:55;;;;;;;;;11.67;11.00;;;;;21.69;38.84;101538.63;112125;1263;18633;-40
2023/06/05 03:05:24;;;;;;;;;10.00;10.00;;;;;21.69;38.89;101543.89;112164;1264;19508;-40
2023/06/05 03:07:53;;;;;;;;;10.50;10.00;;;;;21.69;39.08;101545.08;111971;1250;20249;-40
2023/06/05 03:10:21;;;;;;;;;13.00;13.00;;;;;21.69;39.05;101547.27;112062;1263;20182;-40
2023/06/05 03:12:48;;;;;;;;;10.00;8.00;;;;;21.68;38.96;101546.38;112212;1263;20666;-40
2023/06/05 03:15:17;;;;;;;;;7.00;7.00;;;;;21.68;39.06;101548.42;112048;1263;19942;-43
2023/06/05 03:17:45;;;;;;;;;10.00;10.00;;;;;21.67;39.11;101548.67;112119;1248;20104;-42
2023/06/05 03:20:12;;;;;;;;;10.00;8.00;;;;;21.67;39.11;101551.94;112031;1263;19341;-43
2023/06/05 03:22:40;;;;;;;;;10.00;10.00;;;;;21.67;39.04;101552.38;112078;1248;20124;-40
2023/06/05 03:25:08;;;;;;;;;13.00;11.00;;;;;21.66;39.15;101550.81;112004;1248;19856;-41
2023/06/05 03:27:35;;;;;;;;;10.00;10.00;;;;;21.65;39.25;101546.77;112057;1248;21712;-40
2023/06/05 03:30:03;;;;;;;;;11.00;11.00;;;;;21.65;39.24;101551.80;112242;1264;18571;-42
2023/06/05 03:32:30;;;;;;;;;13.00;11.00;;;;;21.66;39.03;101548.80;112042;1263;20137;-40
2023/06/05 03:34:58;;;;;;;;;13.50;12.00;;;;;21.66;39.15;101547.42;112236;1256;19540;-42
2023/06/05 03:37:25;;;;;;;;;13.00;13.00;;;;;21.66;39.15;101554.30;112086;1264;18848;-40
2023/06/05 03:39:53;;;;;;;;;8.00;8.00;;;;;21.66;38.95;101552.83;112178;1263;18666;-40
2023/06/05 03:42:20;;;;;;;;;13.00;11.00;;;;;21.66;39.16;101551.18;112088;1263;20691;-40
2023/06/05 03:44:47;;;;;;;;;14.00;11.67;;;;;21.66;38.88;101549.92;112050;1263;19539;-40
2023/06/05 03:47:15;;;;;;;;;11.00;10.00;;;;;21.66;38.95;101546.31;112095;1248;20082;-40
2023/06/05 03:49:45;;;;;;;;;10.00;8.00;;;;;21.66;39.16;101556.71;112132;1263;20594;-40
2023/06/05 03:52:14;;;;;;;;;14.00;13.00;;;;;21.66;39.25;101553.60;112214;1248;21185;-41
2023/06/05 03:54:44;;;;;;;;;10.50;10.50;;;;;21.66;39.04;101552.86;112009;1248;18696;-40
2023/06/05 03:57:12;;;;;;;;;14.00;13.00;;;;;21.66;39.04;101553.06;111986;1251;20779;-40
2023/06/05 03:59:39;;;;;;;;;14.50;12.00;;;;;21.66;39.13;101554.29;112138;1263;18769;-40
2023/06/05 04:02:07;;;;;;;;;10.00;10.00;;;;;21.66;39.23;101553.41;111936;1263;20030;-41
2023/06/05 04:04:35;;;;;;;;;13.00;13.00;;;;;21.65;39.26;101550.59;112124;1263;20812;-40
2023/06/05 04:07:02;;;;;;;;;12.00;11.00;;;;;21.64;39.28;101552.64;111964;1263;19968;-40
2023/06/05 04:09:29;;;;;;;;;14.00;11.00;;;;;21.64;39.18;101551.55;112117;1263;20034;-40
2023/06/05 04:11:57;;;;;;;;;12.00;11.00;;;;;21.64;39.22;101556.11;111972;1263;19230;-40
2023/06/05 04:14:25;;;;;;;;;11.00;10.00;;;;;21.65;39.14;101553.70;112103;1263;19925;-40
2023/06/05 04:16:52;;;;;;;;;13.00;10.00;;;;;21.65;39.10;101556.16;111975;1257;18716;-41
2023/06/05 04:19:20;;;;;;;;;11.00;10.00;;;;;21.65;39.34;101557.52;112165;1263;19937;-40
2023/06/05 04:21:47;;;;;;;;;13.67;11.00;;;;;21.64;39.35;101558.46;111975;1256;18940;-40
2023/06/05 04:24:14;;;;;;;;;10.00;10.00;;;;;21.66;39.26;101558.48;112164;1248;18899;-40
2023/06/05 04:26:42;;;;;;;;;13.00;11.00;;;;;21.65;39.29;101559.50;111955;1263;20886;-40
2023/06/05 04:29:13;;;;;;;;;17.00;14.00;;;;;21.65;39.54;101562.08;112158;1263;18607;-40
2023/06/05 04:31:41;;;;;;;;;11.00;11.00;;;;;21.63;39.58;101558.05;112051;1248;20082;-40
2023/06/05 04:34:08;;;;;;;;;13.67;13.67;;;;;21.56;39.84;101557.88;112209;1263;19358;-41
2023/06/05 04:36:36;;;;;;;;;14.00;13.00;;;;;21.47;40.19;101563.36;112084;1248;20025;-41
2023/06/05 04:39:04;;;;;;;;;14.00;13.00;;;;;21.30;40.53;101565.45;112227;1263;20268;-42
2023/06/05 04:41:32;;;;;;;;;16.00;14.00;;;;;21.31;40.68;101559.65;112001;1263;20695;-41
2023/06/05 04:44:00;;;;;;;;;14.67;13.33;;;;;21.29;40.75;101558.54;112122;1263;20113;-40
2023/06/05 04:46:28;;;;;;;;;14.50;13.50;;;;;21.24;41.16;101558.28;112135;1263;20282;-40
2023/06/05 04:48:57;;;;;;;;;19.67;17.00;;;;;21.23;41.24;101559.52;112079;1248;19430;-40
2023/06/05 04:51:24;;;;;;;;;20.00;18.33;;;;;21.13;41.74;101558.53;112147;1248;20003;-40
2023/06/05 04:53:52;;;;;;;;;23.67;19.00;;;;;21.12;42.40;101554.61;111948;1248;21357;-40
2023/06/05 04:56:20;;;;;;;;;17.00;16.00;;;;;21.06;43.02;101555.97;112113;1248;22165;-40
2023/06/05 04:58:50;;;;;;;;;25.00;20.00;;;;;21.00;43.01;101552.65;111976;1250;19989;-42
2023/06/05 05:01:17;;;;;;;;;16.50;16.50;;;;;20.87;42.91;101554.73;111945;1264;19244;-41
2023/06/05 05:03:46;;;;;;;;;18.00;16.33;;;;;20.88;42.91;101552.59;112135;1248;20755;-40
2023/06/05 05:06:14;;;;;;;;;21.33;20.00;;;;;20.63;43.07;101550.30;112182;1248;20014;-40
2023/06/05 05:08:43;;;;;;;;;21.50;19.50;;;;;20.34;43.12;101552.80;111964;1263;18718;-40
2023/06/05 05:11:10;;;;;;;;;25.00;25.00;;;;;20.30;43.02;101551.61;112051;1248;20911;-40
2023/06/05 05:13:38;;;;;;;;;22.00;19.00;;;;;20.27;42.77;101548.30;112114;1264;18602;-39
2023/06/05 05:16:05;;;;;;;;;19.00;18.00;;;;;20.42;42.90;101549.70;112110;1248;20052;-38
2023/06/05 05:18:33;;;;;;;;;37.00;32.00;;;;;20.95;42.32;101550.23;112119;1248;20965;-38
2023/06/05 05:21:00;;;;;;;;;51.00;45.00;;;;;21.25;41.83;101548.91;112072;1263;19891;-39
2023/06/05 05:23:27;;;;;;;;;39.33;35.33;;;;;21.41;41.89;101547.67;111993;1264;20634;-40
2023/06/05 05:25:55;;;;;;;;;68.00;50.00;;;;;21.50;42.31;101545.92;112114;1248;20607;-38
2023/06/05 05:28:23;;;;;;;;;55.50;45.00;;;;;21.61;42.27;101544.20;112198;1264;21340;-39
2023/06/05 05:30:50;;;;;;;;;48.50;42.50;;;;;21.68;42.39;101542.80;112099;1263;18739;-39
2023/06/05 05:33:18;;;;;;;;;39.67;32.67;;;;;21.74;42.80;101544.36;112132;1263;19491;-39
2023/06/05 05:35:45;;;;;;;;;30.00;29.00;;;;;21.77;42.92;101546.01;112083;1248;18775;-39
2023/06/05 05:38:12;;;;;;;;;29.50;23.50;;;;;21.78;43.02;101544.80;112064;1248;20119;-38
2023/06/05 05:40:40;;;;;;;;;30.00;25.00;;;;;21.79;42.75;101545.20;112093;1264;19668;-38
2023/06/05 05:43:08;;;;;;;;;29.00;22.00;;;;;21.82;42.56;101549.30;111944;1264;19933;-40
2023/06/05 05:45:38;;;;;;;;;19.00;17.00;;;;;21.84;42.16;101545.36;112073;1248;21111;-39
2023/06/05 05:48:05;;;;;;;;;23.00;20.00;;;;;21.86;41.84;101545.98;112099;1264;19355;-39
2023/06/05 05:50:33;;;;;;;;;23.00;21.00;;;;;21.86;41.59;101547.89;112198;1264;18542;-39
2023/06/05 05:53:00;;;;;;;;;19.00;17.00;;;;;21.87;41.27;101551.27;112100;1248;20074;-41
2023/06/05 05:55:28;;;;;;;;;16.50;15.00;;;;;21.81;41.00;101550.42;112185;1263;19321;-40
2023/06/05 05:57:55;;;;;;;;;24.00;22.67;;;;;21.59;40.66;101551.59;112074;1248;19979;-39
2023/06/05 06:00:24;;;;;;;;;22.50;22.00;;;;;21.51;40.38;101560.05;112213;1256;21726;-41
2023/06/05 06:02:52;;;;;;;;;22.33;19.67;;;;;21.52;40.32;101558.44;112003;1264;19385;-40
2023/06/05 06:05:20;;;;;;;;;17.33;16.33;;;;;21.47;40.41;101558.04;112114;1264;20262;-40
2023/06/05 06:07:48;;;;;;;;;22.00;19.00;;;;;21.47;40.29;101555.58;112154;1263;20372;-40
2023/06/05 06:10:15;;;;;;;;;20.00;16.00;;;;;21.45;40.49;101559.96;112078;1263;19410;-39
2023/06/05 06:12:42;;;;;;;;;14.00;14.00;;;;;21.44;40.47;101560.57;112033;1263;18563;-39
2023/06/05 06:15:11;;;;;;;;;16.00;14.00;;;;;21.45;40.24;101562.86;112087;1263;20057;-39
2023/06/05 06:17:38;;;;;;;;;13.00;13.00;;;;;21.47;40.51;101561.72;112220;1248;19537;-40
2023/06/05 06:20:06;;;;;;;;;16.50;15.00;;;;;21.52;40.34;101561.55;112025;1263;18603;-39
2023/06/05 06:22:34;;;;;;;;;14.00;13.00;;;;;21.56;40.11;101567.53;112171;1263;18898;-40
2023/06/05 06:25:03;;;;;;;;;13.00;13.00;;;;;21.54;40.20;101564.84;111985;1250;20766;-40
2023/06/05 06:27:30;;;;;;;;;12.00;10.00;;;;;21.55;39.86;101567.40;112047;1248;19914;-39
2023/06/05 06:29:58;;;;;;;;;13.00;10.00;;;;;21.60;39.27;101564.94;112219;1263;20040;-41
2023/06/05 06:32:26;;;;;;;;;11.00;10.00;;;;;21.63;39.18;101566.77;112042;1248;20934;-39
2023/06/05 06:34:54;;;;;;;;;11.00;11.00;;;;;21.68;39.07;101568.83;112217;1263;19922;-40
2023/06/05 06:37:22;;;;;;;;;11.00;11.00;;;;;21.73;38.90;101570.59;111989;1263;20017;-39
2023/06/05 06:39:50;;;;;;;;;8.00;8.00;;;;;21.77;38.37;101571.64;112124;1263;20592;-40
2023/06/05 06:42:17;;;;;;;;;10.00;9.00;;;;;21.77;38.26;101570.14;111940;1263;20101;-41
2023/06/05 06:44:45;;;;;;;;;13.00;13.00;;;;;21.81;38.17;101569.98;112113;1263;20132;-39
2023/06/05 06:47:12;;;;;;;;;13.00;11.00;;;;;21.90;37.95;101564.92;111946;1251;20924;-41
2023/06/05 06:49:40;;;;;;;;;13.00;11.00;;;;;21.81;37.59;101562.80;112128;1248;19962;-40
2023/06/05 06:52:08;;;;;;;;;10.33;10.00;;;;;21.74;37.39;101565.47;112205;1250;20125;-40
2023/06/05 06:54:35;;;;;;;;;11.00;11.00;;;;;21.77;37.42;101566.20;112091;1248;22148;-39
2023/06/05 06:57:03;;;;;;;;;12.00;11.00;;;;;21.87;37.28;101569.63;112245;1248;20053;-41
2023/06/05 06:59:30;;;;;;;;;10.00;10.00;;;;;22.01;37.56;101567.73;112095;1256;21883;-40
2023/06/05 07:01:58;;;;;;;;;11.00;11.00;;;;;22.16;37.55;101566.89;112226;1263;19310;-42
2023/06/05 07:04:25;;;;;;;;;13.00;13.00;;;;;22.20;37.51;101568.43;112089;1248;20005;-41
2023/06/05 07:06:53;;;;;;;;;10.00;10.00;;;;;22.23;37.66;101564.52;112170;1248;20021;-40
2023/06/05 07:09:20;;;;;;;;;11.67;10.67;;;;;22.42;37.51;101563.88;112081;1263;20659;-40
2023/06/05 07:11:48;;;;;;;;;9.00;9.00;;;;;22.51;37.57;101561.56;112137;1257;18567;-42
2023/06/05 07:14:15;;;;;;;;;11.00;10.00;;;;;22.59;37.41;101559.49;112097;1248;20112;-40
2023/06/05 07:16:43;;;;;;;;;11.00;10.00;;;;;22.59;37.50;101561.45;112119;1249;20772;-40
2023/06/05 07:19:10;;;;;;;;;13.00;11.00;;;;;22.59;37.25;101559.61;112079;1248;20303;-40
2023/06/05 07:21:38;;;;;;;;;11.00;10.00;;;;;22.63;36.69;101560.84;112058;1248;20067;-40
2023/06/05 07:24:06;;;;;;;;;8.00;8.00;;;;;22.63;36.54;101562.30;112041;1264;21757;-40
2023/06/05 07:26:33;;;;;;;;;10.00;10.00;;;;;22.66;36.67;101567.46;112249;1263;18898;-40
2023/06/05 07:29:00;;;;;;;;;9.00;7.00;;;;;22.75;36.44;101570.61;112058;1263;18660;-40
2023/06/05 07:31:29;;;;;;;;;10.00;9.00;;;;;22.72;36.00;101566.27;112200;1264;19687;-42
2023/06/05 07:33:56;;;;;;;;;11.00;10.00;;;;;22.61;36.08;101564.49;111999;1263;19913;-40
2023/06/05 07:36:23;;;;;;;;;10.00;10.00;;;;;22.67;36.11;101567.15;112196;1263;20219;-41
2023/06/05 07:38:51;;;;;;;;;9.00;9.00;;;;;22.77;36.23;101564.64;112018;1263;20713;-41
2023/06/05 07:41:18;;;;;;;;;10.00;8.00;;;;;22.78;36.56;101566.07;112194;1248;20065;-42
2023/06/05 07:43:46;;;;;;;;;10.00;9.00;;;;;22.93;36.34;101564.08;112031;1264;19927;-41
2023/06/05 07:46:14;;;;;;;;;10.00;10.00;;;;;23.06;36.46;101563.91;112229;1248;19573;-41
2023/06/05 07:48:41;;;;;;;;;10.00;10.00;;;;;22.96;36.21;101560.51;111982;1248;18827;-41
2023/06/05 07:51:10;;;;;;;;;10.00;9.33;;;;;22.96;35.53;101560.15;112195;1264;20213;-41
2023/06/05 07:53:37;;;;;;;;;10.00;10.00;;;;;22.85;35.20;101560.39;111956;1263;20519;-41
2023/06/05 07:56:05;;;;;;;;;9.00;9.00;;;;;22.98;35.19;101560.05;112148;1263;18570;-41
2023/06/05 07:58:32;;;;;;;;;8.00;8.00;;;;;23.06;35.31;101554.60;111955;1264;18796;-40
2023/06/05 08:00:59;;;;;;;;;9.00;8.50;;;;;23.20;35.09;101553.40;112134;1263;20783;-40
2023/06/05 08:03:27;;;;;;;;;12.00;11.00;;;;;23.19;34.69;101552.54;111948;1263;18458;-40
2023/06/05 08:05:55;;;;;;;;;7.50;7.50;;;;;22.90;34.19;101559.25;112135;1264;18671;-40
2023/06/05 08:08:22;;;;;;;;;8.00;8.00;;;;;22.75;34.22;101558.09;111977;1248;22101;-40
2023/06/05 08:10:49;;;;;;;;;7.50;7.00;;;;;22.82;34.43;101560.55;112151;1248;19620;-40
2023/06/05 08:13:17;;;;;;;;;7.00;7.00;;;;;22.89;34.48;101559.82;111996;1248;20168;-40
2023/06/05 08:15:45;;;;;;;;;7.50;7.50;;;;;22.87;34.77;101560.73;112142;1264;20714;-41
2023/06/05 08:18:12;;;;;;;;;7.50;7.50;;;;;22.86;34.70;101561.42;111962;1256;19531;-41
2023/06/05 08:20:40;;;;;;;;;8.00;8.00;;;;;22.97;34.49;101556.91;112137;1263;19838;-41
2023/06/05 08:23:07;;;;;;;;;8.00;8.00;;;;;23.11;34.04;101557.75;112016;1248;21049;-41
2023/06/05 08:25:35;;;;;;;;;8.67;8.00;;;;;23.17;33.68;101559.41;112149;1263;18820;-40
2023/06/05 08:28:02;;;;;;;;;8.00;8.00;;;;;23.18;33.48;101555.96;111969;1256;20022;-40
2023/06/05 08:30:30;;;;;;;;;7.00;7.00;;;;;23.09;33.69;101558.13;112114;1263;20756;-41
2023/06/05 08:32:57;;;;;;;;;8.00;8.00;;;;;23.14;33.89;101554.84;111958;1264;18377;-41
2023/06/05 08:35:25;;;;;;;;;7.00;7.00;;;;;23.18;33.67;101557.44;112117;1263;18597;-41
2023/06/05 08:37:52;;;;;;;;;7.00;7.00;;;;;23.10;33.92;101552.49;111993;1248;19321;-40
2023/06/05 08:40:20;;;;;;;;;9.00;8.67;;;;;23.11;34.07;101558.40;112083;1263;19527;-41
2023/06/05 08:42:47;;;;;;;;;7.33;7.33;;;;;23.28;33.35;101556.84;111968;1248;20027;-41
2023/06/05 08:45:15;;;;;;;;;9.00;8.00;;;;;23.08;33.05;101554.95;112106;1263;21849;-44
2023/06/05 08:47:42;;;;;;;;;10.50;8.00;;;;;23.09;33.21;101554.85;112020;1251;19847;-41
2023/06/05 08:50:10;;;;;;;;;7.00;7.00;;;;;23.17;33.33;101549.36;112150;1263;18638;-41
2023/06/05 08:52:37;;;;;;;;;8.00;8.00;;;;;23.31;33.14;101544.72;111995;1248;21098;-40
2023/06/05 08:55:04;;;;;;;;;8.00;7.00;;;;;23.25;33.43;101547.38;112159;1248;19614;-39
2023/06/05 08:57:32;;;;;;;;;7.00;5.00;;;;;23.20;33.12;101548.51;111961;1264;18571;-41
2023/06/05 09:00:00;;;;;;;;;8.00;7.00;;;;;23.23;32.83;101546.10;112162;1263;19315;-39
2023/06/05 09:02:27;;;;;;;;;7.50;7.00;;;;;23.32;32.41;101548.37;112022;1248;19629;-39
2023/06/05 09:04:57;;;;;;;;;8.00;8.00;;;;;23.22;32.21;101544.83;112140;1263;20467;-39
2023/06/05 09:07:24;;;;;;;;;7.00;7.00;;;;;23.25;32.13;101545.56;112184;1263;20555;-40
2023/06/05 09:09:51;;;;;;;;;7.50;7.00;;;;;23.24;32.23;101544.95;112018;1256;18114;-42
2023/06/05 09:12:19;;;;;;;;;7.00;7.00;;;;;23.44;31.64;101543.57;112211;1248;20169;-41
2023/06/05 09:14:46;;;;;;;;;8.00;8.00;;;;;23.46;32.11;101546.26;112021;1264;19462;-41
2023/06/05 09:17:14;;;;;;;;;7.00;7.00;;;;;23.54;32.16;101540.63;112204;1263;19896;-40
2023/06/05 09:19:42;;;;;;;;;8.00;8.00;;;;;23.65;32.17;101539.17;112039;1248;20172;-40
2023/06/05 09:22:10;;;;;;;;;8.00;8.00;;;;;23.56;32.32;101539.22;112080;1263;20705;-40
2023/06/05 09:24:37;;;;;;;;;8.00;8.00;;;;;23.56;32.52;101528.92;112016;1263;18635;-40
2023/06/05 09:27:05;;;;;;;;;7.00;7.00;;;;;23.54;32.46;101531.09;112102;1264;18775;-40
2023/06/05 09:29:33;;;;;;;;;8.00;8.00;;;;;23.57;32.45;101532.02;112227;1248;22112;-41
2023/06/05 09:32:00;;;;;;;;;8.00;6.00;;;;;23.48;32.67;101529.02;112057;1256;18477;-42
2023/06/05 09:34:28;;;;;;;;;9.00;8.00;;;;;23.41;32.79;101530.61;112241;1263;19841;-41
2023/06/05 09:36:57;;;;;;;;;6.67;6.67;;;;;23.40;33.08;101528.19;112053;1263;21034;-40
2023/06/05 09:39:26;;;;;;;;;8.00;8.00;;;;;23.62;32.45;101527.11;112147;1248;19611;-40
2023/06/05 09:41:53;;;;;;;;;9.00;9.00;;;;;23.51;31.88;101530.55;112254;1263;20329;-41
2023/06/05 09:44:20;;;;;;;;;8.00;8.00;;;;;23.42;31.82;101529.14;112053;1248;20741;-40
2023/06/05 09:46:48;;;;;;;;;8.00;8.00;;;;;23.55;31.81;101527.73;112226;1264;18368;-41
2023/06/05 09:49:15;;;;;;;;;8.00;8.00;;;;;23.58;31.66;101526.05;112066;1263;20279;-40
2023/06/05 09:51:43;;;;;;;;;8.00;8.00;;;;;23.38;31.66;101527.81;112236;1251;21056;-40
2023/06/05 09:54:10;;;;;;;;;7.00;6.00;;;;;23.24;31.49;101524.02;112045;1264;18571;-40
2023/06/05 09:56:38;;;;;;;;;8.00;6.00;;;;;23.15;31.64;101518.81;112206;1263;19968;-40
2023/06/05 09:59:05;;;;;;;;;7.00;7.00;;;;;23.08;31.69;101517.15;112075;1263;21048;-38
2023/06/05 10:01:33;;;;;;;;;7.00;7.00;;;;;23.03;31.71;101510.91;112185;1264;19501;-38
2023/06/05 10:04:01;;;;;;;;;8.00;8.00;;;;;23.10;31.48;101510.38;112061;1264;18611;-38
2023/06/05 10:06:28;;;;;;;;;8.00;8.00;;;;;23.10;31.42;101512.77;112259;1248;20791;-39
2023/06/05 10:08:56;;;;;;;;;8.00;8.00;;;;;23.06;31.23;101509.73;112034;1264;19877;-39
2023/06/05 10:11:24;;;;;;;;;9.00;9.00;;;;;23.10;31.02;101505.14;112203;1264;18950;-38
2023/06/05 10:13:52;;;;;;;;;8.00;8.00;;;;;23.17;31.12;101503.35;111988;1263;19536;-38
2023/06/05 10:16:19;;;;;;;;;7.00;7.00;;;;;23.20;31.15;101500.02;112186;1248;19616;-39
2023/06/05 10:18:46;;;;;;;;;7.00;7.00;;;;;23.28;31.54;101496.52;111994;1263;21243;-39
2023/06/05 10:21:14;;;;;;;;;8.00;8.00;;;;;23.34;31.33;101490.38;112202;1263;21427;-39
2023/06/05 10:23:41;;;;;;;;;7.50;7.50;;;;;23.32;30.95;101496.98;112020;1251;19595;-39
2023/06/05 10:26:09;;;;;;;;;7.00;7.00;;;;;23.19;30.99;101497.16;112214;1248;20031;-39
2023/06/05 10:28:36;;;;;;;;;8.00;7.50;;;;;23.17;31.19;101497.62;112058;1264;19495;-39
2023/06/05 10:31:04;;;;;;;;;8.00;8.00;;;;;23.24;31.24;101489.65;112222;1263;19555;-40
2023/06/05 10:33:31;;;;;;;;;6.00;6.00;;;;;23.27;31.10;101485.86;112120;1248;19960;-39
2023/06/05 10:36:00;;;;;;;;;7.00;7.00;;;;;23.24;31.43;101487.64;112280;1248;21114;-40
2023/06/05 10:38:28;;;;;;;;;7.00;7.00;;;;;23.19;31.57;101488.58;112159;1263;18379;-40
2023/06/05 10:40:55;;;;;;;;;7.00;7.00;;;;;23.35;31.78;101487.30;112075;1263;18913;-39
2023/06/05 10:43:23;;;;;;;;;8.00;8.00;;;;;23.34;31.63;101484.34;112219;1263;19338;-41
2023/06/05 10:45:50;;;;;;;;;7.67;7.00;;;;;23.41;31.86;101479.69;112036;1263;20941;-40
2023/06/05 10:48:18;;;;;;;;;8.67;8.00;;;;;23.31;32.02;101481.19;112231;1263;18491;-39
2023/06/05 10:50:45;;;;;;;;;8.67;8.33;;;;;23.23;31.85;101472.10;112121;1256;19559;-39
2023/06/05 10:53:13;;;;;;;;;6.00;6.00;;;;;23.26;32.23;101466.80;112170;1263;18190;-39
2023/06/05 10:55:40;;;;;;;;;8.00;8.00;;;;;23.28;32.38;101463.86;112073;1263;18957;-40
2023/06/05 10:58:08;;;;;;;;;8.50;8.00;;;;;23.27;32.18;101466.37;112013;1263;22083;-40
2023/06/05 11:00:35;;;;;;;;;7.00;7.00;;;;;23.24;31.64;101464.84;112076;1251;19919;-39
2023/06/05 11:03:03;;;;;;;;;7.00;7.00;;;;;23.29;31.71;101464.86;112183;1250;20392;-39
2023/06/05 11:05:30;;;;;;;;;8.00;7.00;;;;;23.27;31.60;101462.02;112081;1263;19370;-44
2023/06/05 11:07:58;;;;;;;;;8.00;8.00;;;;;23.19;31.45;101458.84;112235;1263;19571;-39
2023/06/05 11:10:25;;;;;;;;;7.50;7.00;;;;;23.18;31.24;101458.48;112090;1251;20003;-39